Time;durP1;ratioP1;P1;durP2;ratioP2;P2;SDS_P1;SDS_P2;PMS_P1;PMS_P2;Temp;Humidity;BMP_temperature;BMP_pressure;BME280_temperature;BME280_humidity;BME280_pressure;Samples;Min_cycle;Max_cycle;Signal;HPM_P1;HPM_P2
2022/12/09 04:00:28;;;;;;;;;;;16.00;50.20;;;;;;6008049;23;45939;-59
2022/12/09 04:02:54;;;;;;;;;;;16.00;50.30;;;;;;4961399;28;45583;-58
2022/12/09 04:05:20;;;;;;;;;;;16.00;50.30;;;;;;4981602;28;45342;-58
2022/12/09 04:07:45;;;;;;;;;;;16.00;50.30;;;;;;4968772;28;45387;-58
2022/12/09 04:10:11;;;;;;;;;;;16.00;50.40;;;;;;4992930;28;45598;-55
2022/12/09 04:12:38;;;;;;;;;;;16.00;50.40;;;;;;4980279;28;45314;-60
2022/12/09 04:15:04;;;;;;;;;;;16.00;50.30;;;;;;4984846;28;45231;-54
2022/12/09 04:17:30;;;;;;;;;;;16.00;50.40;;;;;;4980738;28;45361;-57
2022/12/09 04:19:55;;;;;;;;;;;16.00;50.40;;;;;;4974589;28;45570;-58
2022/12/09 04:22:21;;;;;;;;;;;16.00;50.40;;;;;;4979987;28;45220;-57
2022/12/09 04:24:46;;;;;;;;;;;15.90;50.30;;;;;;4965240;28;45084;-55
2022/12/09 04:27:12;;;;;;;;;;;15.90;50.40;;;;;;4978720;28;45516;-52
2022/12/09 04:29:38;;;;;;;;;;;15.90;50.30;;;;;;4975296;28;45314;-59
2022/12/09 04:32:04;;;;;;;;;;;15.90;50.40;;;;;;4987322;28;45348;-59
2022/12/09 04:34:30;;;;;;;;;;;15.90;50.40;;;;;;4978451;28;44707;-59
2022/12/09 04:36:56;;;;;;;;;;;15.90;50.30;;;;;;4984675;28;45721;-56
2022/12/09 04:39:21;;;;;;;;;;;15.90;50.30;;;;;;4982895;28;45152;-60
2022/12/09 04:41:47;;;;;;;;;;;15.90;50.40;;;;;;4984735;28;45228;-54
2022/12/09 04:44:12;;;;;;;;;;;15.90;50.40;;;;;;4987516;28;45116;-56
2022/12/09 04:46:38;;;;;;;;;;;15.90;50.50;;;;;;4982731;28;45679;-58
2022/12/09 04:49:03;;;;;;;;;;;15.80;50.40;;;;;;4990351;28;46834;-54
2022/12/09 04:51:29;;;;;;;;;;;15.80;50.40;;;;;;4986784;28;45165;-57
2022/12/09 04:53:54;;;;;;;;;;;15.80;50.50;;;;;;4986240;28;45211;-56
2022/12/09 04:56:20;;;;;;;;;;;15.80;50.40;;;;;;4985318;28;44888;-59
2022/12/09 04:58:46;;;;;;;;;;;15.80;50.40;;;;;;4966990;28;46482;-59
2022/12/09 05:01:12;;;;;;;;;;;15.80;50.40;;;;;;4958712;28;46175;-56
2022/12/09 05:03:38;;;;;;;;;;;15.80;50.40;;;;;;4991656;28;45562;-53
2022/12/09 05:06:07;;;;;;;;;;;15.80;50.40;;;;;;4963423;28;45748;-56
2022/12/09 05:08:33;;;;;;;;;;;15.80;50.50;;;;;;4980231;28;45456;-55
2022/12/09 05:10:58;;;;;;;;;;;15.80;50.40;;;;;;4981899;28;45192;-55
2022/12/09 05:13:25;;;;;;;;;;;15.80;50.50;;;;;;4977172;28;45461;-59
2022/12/09 05:15:52;;;;;;;;;;;15.80;50.40;;;;;;4976653;28;45521;-56
2022/12/09 05:18:17;;;;;;;;;;;15.70;50.40;;;;;;4968487;28;47281;-56
2022/12/09 05:20:43;;;;;;;;;;;15.70;50.40;;;;;;4970129;28;45056;-55
2022/12/09 05:23:08;;;;;;;;;;;15.70;50.40;;;;;;4980750;28;45356;-56
2022/12/09 05:25:33;;;;;;;;;;;15.70;50.40;;;;;;4963894;28;45235;-55
2022/12/09 05:27:59;;;;;;;;;;;15.70;50.50;;;;;;4964649;28;47214;-56
2022/12/09 05:30:24;;;;;;;;;;;15.70;50.40;;;;;;4986874;28;45329;-57
2022/12/09 05:32:50;;;;;;;;;;;15.70;50.50;;;;;;4981048;28;45149;-56
2022/12/09 05:35:15;;;;;;;;;;;15.70;50.50;;;;;;4977881;28;45471;-57
2022/12/09 05:37:41;;;;;;;;;;;15.70;50.50;;;;;;4977769;28;45408;-59
2022/12/09 05:40:06;;;;;;;;;;;15.70;50.50;;;;;;4982628;28;44867;-54
2022/12/09 05:42:32;;;;;;;;;;;15.60;50.50;;;;;;4958263;28;45087;-55
2022/12/09 05:44:57;;;;;;;;;;;15.60;50.50;;;;;;4982026;28;45431;-57
2022/12/09 05:47:23;;;;;;;;;;;15.60;50.50;;;;;;4963106;28;46771;-57
2022/12/09 05:49:48;;;;;;;;;;;15.60;50.50;;;;;;4963365;28;44975;-58
2022/12/09 05:52:14;;;;;;;;;;;15.60;50.50;;;;;;4985211;28;45489;-60
2022/12/09 05:54:39;;;;;;;;;;;15.60;50.50;;;;;;4971534;28;45616;-57
2022/12/09 05:57:05;;;;;;;;;;;15.60;50.50;;;;;;4944723;28;46789;-56
2022/12/09 05:59:30;;;;;;;;;;;15.50;50.60;;;;;;4967673;28;45235;-55
2022/12/09 06:01:56;;;;;;;;;;;15.60;50.50;;;;;;4977000;28;45223;-54
2022/12/09 06:04:21;;;;;;;;;;;15.60;50.50;;;;;;4973503;28;45548;-59
2022/12/09 06:06:47;;;;;;;;;;;15.50;50.50;;;;;;4931790;28;45376;-56
2022/12/09 06:09:12;;;;;;;;;;;15.50;50.50;;;;;;4972808;28;45290;-61
2022/12/09 06:11:38;;;;;;;;;;;15.50;50.60;;;;;;4974636;28;45817;-56
2022/12/09 06:14:04;;;;;;;;;;;15.50;50.60;;;;;;4978138;28;45639;-56
2022/12/09 06:16:29;;;;;;;;;;;15.50;50.60;;;;;;4949365;28;46377;-59
2022/12/09 06:18:55;;;;;;;;;;;15.50;50.60;;;;;;4971914;28;45097;-57
2022/12/09 06:21:20;;;;;;;;;;;15.50;50.60;;;;;;4956454;28;45666;-60
2022/12/09 06:23:46;;;;;;;;;;;15.50;50.60;;;;;;4972288;28;47030;-55
2022/12/09 06:26:15;;;;;;;;;;;15.50;50.60;;;;;;4975092;28;45594;-59
2022/12/09 06:28:41;;;;;;;;;;;15.50;50.60;;;;;;4953899;28;45549;-58
2022/12/09 06:31:06;;;;;;;;;;;15.50;50.60;;;;;;4973097;28;45287;-54
2022/12/09 06:33:32;;;;;;;;;;;15.40;50.50;;;;;;4987502;28;45407;-56
2022/12/09 06:36:00;;;;;;;;;;;15.40;50.50;;;;;;4986700;28;46251;-54
2022/12/09 06:38:26;;;;;;;;;;;15.40;50.60;;;;;;4965559;28;45416;-58
2022/12/09 06:40:51;;;;;;;;;;;15.40;50.60;;;;;;4975977;28;45232;-57
2022/12/09 06:43:17;;;;;;;;;;;15.40;50.60;;;;;;4985198;28;45108;-57
2022/12/09 06:45:42;;;;;;;;;;;15.40;50.60;;;;;;4984625;28;46673;-59
2022/12/09 06:48:08;;;;;;;;;;;15.40;50.60;;;;;;4993282;28;44982;-56
2022/12/09 06:50:33;;;;;;;;;;;15.40;51.20;;;;;;4987928;28;45443;-55
2022/12/09 06:52:59;;;;;;;;;;;15.40;50.60;;;;;;4985975;28;45640;-62
2022/12/09 06:55:24;;;;;;;;;;;15.40;50.60;;;;;;4978344;28;47764;-56
2022/12/09 06:57:49;;;;;;;;;;;15.30;50.60;;;;;;4967736;28;44758;-60
2022/12/09 07:00:15;;;;;;;;;;;15.30;50.60;;;;;;4982963;28;44961;-54
2022/12/09 07:02:41;;;;;;;;;;;15.30;50.60;;;;;;4972524;28;45122;-57
2022/12/09 07:05:06;;;;;;;1.08;0.88;;;15.30;50.60;;;;;;4965369;28;45586;-56
2022/12/09 07:07:32;;;;;;;6.45;3.45;;;15.30;50.30;;;;;;4977001;28;45526;-57
2022/12/09 07:09:57;;;;;;;9.82;5.25;;;15.30;47.30;;;;;;4957633;28;45123;-57
2022/12/09 07:12:23;;;;;;;7.00;5.40;;;15.10;45.90;;;;;;4985207;28;45516;-59
2022/12/09 07:14:48;;;;;;;6.38;4.85;;;15.00;45.90;;;;;;4978982;28;47019;-58
2022/12/09 07:17:18;;;;;;;5.78;4.43;;;15.00;46.40;;;;;;4979411;28;44864;-58
2022/12/09 07:19:43;;;;;;;6.05;4.30;;;15.00;47.30;;;;;;4983969;28;45418;-56
2022/12/09 07:22:09;;;;;;;6.00;4.15;;;15.10;47.70;;;;;;4987630;28;45593;-57
2022/12/09 07:24:37;;;;;;;5.80;3.85;;;15.30;47.50;;;;;;4990986;28;45240;-57
2022/12/09 07:27:04;;;;;;;4.30;3.38;;;15.50;47.10;;;;;;4965802;28;45389;-58
2022/12/09 07:29:31;;;;;;;4.47;3.67;;;15.70;46.80;;;;;;4963772;28;45555;-59
2022/12/09 07:31:57;;;;;;;4.00;3.03;;;15.90;46.80;;;;;;4961483;28;45574;-57
2022/12/09 07:34:22;;;;;;;4.35;2.83;;;16.10;46.60;;;;;;4987165;28;45350;-59
2022/12/09 07:36:48;;;;;;;3.53;2.70;;;16.20;46.50;;;;;;4959818;28;45239;-59
2022/12/09 07:39:14;;;;;;;4.18;2.90;;;16.40;46.40;;;;;;4984658;28;45272;-59
2022/12/09 07:41:40;;;;;;;2.90;2.28;;;16.50;46.30;;;;;;4987742;28;45297;-59
2022/12/09 07:44:06;;;;;;;3.83;2.53;;;16.60;46.30;;;;;;4978176;28;45235;-58
2022/12/09 07:46:31;;;;;;;3.13;2.45;;;16.70;46.20;;;;;;4973406;28;45142;-58
2022/12/09 07:48:57;;;;;;;4.93;2.33;;;16.80;46.20;;;;;;5004848;28;45613;-58
2022/12/09 07:51:23;;;;;;;2.75;2.25;;;16.80;46.10;;;;;;4990677;28;45020;-59
2022/12/09 07:53:48;;;;;;;2.63;2.20;;;16.80;46.30;;;;;;4963799;28;45595;-59
2022/12/09 07:56:15;;;;;;;2.53;1.95;;;16.90;46.40;;;;;;5016214;28;45445;-59
2022/12/09 07:58:41;;;;;;;3.60;2.40;;;16.90;46.40;;;;;;4965985;28;45349;-58
2022/12/09 08:01:12;;;;;;;2.70;1.80;;;17.10;46.40;;;;;;5002621;28;45380;-58
2022/12/09 08:03:38;;;;;;;2.90;1.98;;;17.20;46.20;;;;;;4988851;28;45638;-59
2022/12/09 08:06:04;;;;;;;2.33;2.10;;;17.30;46.10;;;;;;4988924;28;45451;-60
2022/12/09 08:08:30;;;;;;;2.40;1.90;;;17.50;46.00;;;;;;4991022;28;45295;-59
2022/12/09 08:10:56;;;;;;;2.40;1.90;;;17.60;45.80;;;;;;4991184;28;44915;-60
2022/12/09 08:13:21;;;;;;;2.75;1.85;;;17.70;45.70;;;;;;4988353;28;45554;-60
2022/12/09 08:15:47;;;;;;;2.70;1.85;;;17.90;45.60;;;;;;4985452;28;45417;-59
2022/12/09 08:18:13;;;;;;;2.50;1.80;;;18.00;45.60;;;;;;5017873;28;45180;-59
2022/12/09 08:20:39;;;;;;;2.42;1.88;;;18.00;45.50;;;;;;4990121;28;44966;-59
2022/12/09 08:23:05;;;;;;;2.67;2.03;;;18.10;45.40;;;;;;4990447;28;45664;-60
2022/12/09 08:25:31;;;;;;;2.65;1.77;;;18.20;45.40;;;;;;4972111;28;45207;-59
2022/12/09 08:27:57;;;;;;;2.60;1.60;;;18.30;45.30;;;;;;4988438;28;45148;-60
2022/12/09 08:30:22;;;;;;;4.05;1.63;;;18.40;45.30;;;;;;4968274;28;45712;-59
2022/12/09 08:32:48;;;;;;;1.92;1.75;;;18.40;45.20;;;;;;5003412;28;45255;-59
2022/12/09 08:35:14;;;;;;;1.95;1.58;;;18.40;45.30;;;;;;5003690;28;45406;-59
2022/12/09 08:37:43;;;;;;;3.30;1.67;;;18.40;45.20;;;;;;4997383;28;45131;-60
2022/12/09 08:40:09;;;;;;;1.92;1.50;;;18.40;45.30;;;;;;4979000;28;45532;-59
2022/12/09 08:42:35;;;;;;;1.98;1.55;;;18.50;45.40;;;;;;5003281;28;46015;-59
2022/12/09 08:45:01;;;;;;;1.95;1.67;;;18.60;45.20;;;;;;5000119;28;45016;-60
2022/12/09 08:47:27;;;;;;;1.58;1.45;;;18.70;45.10;;;;;;4986566;28;44882;-59
2022/12/09 08:49:52;;;;;;;2.60;1.55;;;18.90;45.00;;;;;;5006826;28;45246;-61
2022/12/09 08:52:18;;;;;;;2.03;1.73;;;19.00;44.90;;;;;;4989424;28;45163;-61
2022/12/09 08:54:44;;;;;;;2.65;1.67;;;19.10;44.70;;;;;;4993895;28;45272;-59
2022/12/09 08:57:09;;;;;;;2.25;1.55;;;19.30;44.60;;;;;;5004280;28;44875;-59
2022/12/09 08:59:35;;;;;;;1.75;1.17;;;19.30;44.50;;;;;;5009465;28;45669;-59
2022/12/09 09:02:00;;;;;;;2.33;1.35;;;19.50;44.30;;;;;;4975169;28;45345;-59
2022/12/09 09:04:26;;;;;;;1.35;1.25;;;19.50;44.30;;;;;;5009840;28;45224;-59
2022/12/09 09:06:52;;;;;;;1.77;1.42;;;19.60;44.20;;;;;;5012018;28;45017;-59
2022/12/09 09:09:17;;;;;;;2.33;1.20;;;19.70;44.20;;;;;;4987218;28;45388;-59
2022/12/09 09:11:43;;;;;;;2.75;1.42;;;19.70;44.10;;;;;;5000275;28;46312;-59
2022/12/09 09:14:10;;;;;;;1.85;1.50;;;19.80;44.20;;;;;;4981663;28;45430;-60
2022/12/09 09:16:37;;;;;;;5.03;1.52;;;19.80;44.10;;;;;;4950145;28;45516;-60
2022/12/09 09:19:04;;;;;;;3.05;1.70;;;19.70;44.20;;;;;;5013040;28;44969;-58
2022/12/09 09:21:30;;;;;;;1.65;1.20;;;19.70;44.30;;;;;;5014415;28;46363;-60
2022/12/09 09:23:55;;;;;;;1.80;1.38;;;19.80;44.40;;;;;;4990479;28;45105;-59
2022/12/09 09:26:23;;;;;;;2.30;1.60;;;19.80;44.20;;;;;;5008192;28;45510;-60
2022/12/09 09:28:49;;;;;;;2.17;1.45;;;20.00;44.10;;;;;;4994451;28;44716;-59
2022/12/09 09:31:16;;;;;;;1.25;1.13;;;20.10;44.00;;;;;;5011901;28;46637;-60
2022/12/09 09:33:42;;;;;;;7.28;1.45;;;20.20;43.90;;;;;;4955392;28;44953;-61
2022/12/09 09:36:10;;;;;;;2.03;1.35;;;20.30;43.70;;;;;;4964370;28;45193;-61
2022/12/09 09:38:35;;;;;;;1.58;1.23;;;20.40;43.70;;;;;;4954615;28;45221;-60
2022/12/09 09:41:05;;;;;;;2.40;1.52;;;20.50;43.50;;;;;;5002446;28;45576;-58
2022/12/09 09:43:32;;;;;;;1.42;1.33;;;20.60;43.40;;;;;;4968313;28;45233;-58
2022/12/09 09:45:58;;;;;;;3.65;1.48;;;20.70;43.30;;;;;;4984139;28;45524;-60
2022/12/09 09:48:26;;;;;;;1.55;1.08;;;20.80;43.20;;;;;;5004085;28;45221;-60
2022/12/09 09:51:01;;;;;;;1.73;1.20;;;20.80;43.20;;;;;;5007157;28;45606;-60
2022/12/09 09:53:31;;;;;;;1.75;1.23;;;20.90;43.20;;;;;;4984255;28;45131;-60
2022/12/09 09:56:01;;;;;;;1.50;1.30;;;20.90;43.20;;;;;;4984483;28;45481;-61
2022/12/09 09:58:35;;;;;;;1.70;1.20;;;20.90;43.00;;;;;;4971853;28;45455;-60
2022/12/09 10:01:06;;;;;;;2.10;1.40;;;20.90;43.10;;;;;;5015125;28;45658;-58
2022/12/09 10:04:05;;;;;;;3.25;1.20;;;20.80;43.10;;;;;;4985332;28;45287;-60
2022/12/09 10:06:46;;;;;;;2.22;1.30;;;20.90;43.00;;;;;;5003398;28;45511;-59
2022/12/09 10:09:43;;;;;;;1.80;1.20;;;21.00;43.10;;;;;;4973382;28;44996;-61
2022/12/09 10:12:25;;;;;;;2.00;1.33;;;21.10;42.90;;;;;;4962146;28;46158;-60
2022/12/09 10:14:54;;;;;;;1.92;1.50;;;21.20;42.60;;;;;;4964366;28;45012;-60
2022/12/09 10:17:48;;;;;;;1.55;1.45;;;21.30;42.90;;;;;;4987550;28;45299;-60
2022/12/09 10:20:14;;;;;;;;;;;21.40;42.40;;;;;;5015513;28;45239;-58
2022/12/09 10:22:43;;;;;;;1.05;0.95;;;21.50;42.00;;;;;;5015546;28;45589;-60
2022/12/09 10:25:20;;;;;;;1.85;1.10;;;21.50;42.50;;;;;;4973368;28;45231;-59
2022/12/09 10:28:22;;;;;;;2.30;1.05;;;21.70;42.40;;;;;;4973499;28;45384;-61
2022/12/09 10:30:48;;;;;;;2.75;1.17;;;21.70;41.80;;;;;;4982364;28;45240;-61
2022/12/09 10:33:15;;;;;;;1.02;0.85;;;21.80;42.30;;;;;;4976157;28;45483;-61
2022/12/09 10:35:40;;;;;;;1.40;1.27;;;21.90;42.30;;;;;;4976148;28;44641;-59
2022/12/09 10:38:11;;;;;;;1.52;1.10;;;21.90;42.30;;;;;;5000299;28;46601;-59
2022/12/09 10:40:45;;;;;;;1.70;1.10;;;21.80;42.00;;;;;;4984261;28;44939;-59
2022/12/09 10:43:36;;;;;;;1.48;1.10;;;21.80;42.30;;;;;;4982169;28;45721;-60
2022/12/09 10:46:05;;;;;;;1.35;1.15;;;21.70;42.00;;;;;;5001879;28;45504;-61
2022/12/09 10:48:33;;;;;;;1.17;1.08;;;21.80;42.40;;;;;;4971547;28;45438;-58
2022/12/09 10:51:01;;;;;;;2.13;1.30;;;21.90;42.30;;;;;;4994500;28;44749;-60
2022/12/09 10:53:27;;;;;;;1.63;1.10;;;22.00;42.20;;;;;;4973560;28;45614;-60
2022/12/09 10:55:53;;;;;;;2.10;1.25;;;22.10;42.10;;;;;;4976398;28;45428;-60
2022/12/09 10:58:21;;;;;;;1.98;1.30;;;22.20;42.00;;;;;;4975188;28;45366;-61
2022/12/09 11:00:59;;;;;;;1.50;1.10;;;22.30;41.90;;;;;;4985274;28;44846;-58
2022/12/09 11:03:40;;;;;;;1.70;1.05;;;22.30;41.50;;;;;;5014091;28;45466;-60
2022/12/09 11:06:24;;;;;;;1.23;1.05;;;22.50;41.80;;;;;;4983251;28;45267;-60
2022/12/09 11:08:54;;;;;;;1.20;1.05;;;22.50;41.50;;;;;;4987289;28;44898;-62
2022/12/09 11:11:22;;;;;;;1.67;1.10;;;22.50;41.70;;;;;;4975629;28;45263;-59
2022/12/09 11:13:47;;;;;;;1.20;1.10;;;22.60;41.70;;;;;;4957357;28;46618;-59
2022/12/09 11:16:13;;;;;;;1.20;1.10;;;22.60;41.70;;;;;;4987872;28;44719;-59
2022/12/09 11:18:44;;;;;;;1.40;1.05;;;22.60;41.60;;;;;;4994109;28;45025;-58
2022/12/09 11:21:30;;;;;;;1.58;1.15;;;22.60;41.40;;;;;;4988999;28;45772;-58
2022/12/09 11:23:56;;;;;;;1.20;1.10;;;22.50;41.10;;;;;;4995635;28;45465;-58
2022/12/09 11:26:24;;;;;;;1.80;1.10;;;22.30;41.60;;;;;;5010501;28;45212;-59
2022/12/09 11:29:03;;;;;;;2.08;1.27;;;22.20;41.90;;;;;;4994328;28;45432;-59
2022/12/09 11:31:29;;;;;;;1.40;1.30;;;22.10;41.80;;;;;;4998936;28;45140;-59
2022/12/09 11:34:12;;;;;;;1.23;1.13;;;21.90;42.20;;;;;;4992957;28;46756;-59
2022/12/09 11:36:42;;;;;;;1.58;1.17;;;21.90;42.20;;;;;;4991622;28;44863;-59
2022/12/09 11:39:19;;;;;;;2.17;1.20;;;21.70;42.40;;;;;;4990345;28;45331;-60
2022/12/09 11:44:34;;;;;;;1.23;1.13;;;21.50;42.80;;;;;;5001486;28;45431;-59
2022/12/09 11:47:12;;;;;;;1.35;1.25;;;21.50;42.90;;;;;;4970196;28;45161;-60
2022/12/09 11:50:16;;;;;;;3.53;1.08;;;21.40;42.80;;;;;;4990940;28;45438;-60
2022/12/09 11:52:42;;;;;;;2.05;1.15;;;21.30;42.80;;;;;;4972774;28;45379;-58
2022/12/09 11:55:19;;;;;;;1.42;1.20;;;21.20;43.10;;;;;;4994556;28;45715;-59
2022/12/09 11:57:52;;;;;;;2.45;1.08;;;21.20;43.10;;;;;;5002263;28;45266;-59
2022/12/09 12:00:17;;;;;;;;;;;21.10;43.30;;;;;;4990985;28;45239;-60
2022/12/09 12:02:51;;;;;;;1.52;1.30;;;21.00;43.10;;;;;;5003675;28;45504;-59
2022/12/09 12:05:20;;;;;;;1.10;1.00;;;20.90;43.40;;;;;;4980245;28;47411;-58
2022/12/09 12:07:49;;;;;;;1.80;1.40;;;20.90;44.20;;;;;;4987796;28;45126;-59
2022/12/09 12:10:27;;;;;;;3.30;1.20;;;20.80;43.70;;;;;;4999030;28;45294;-59
2022/12/09 12:13:22;;;;;;;1.52;1.20;;;20.70;43.80;;;;;;4971346;28;45538;-59
2022/12/09 12:16:11;;;;;;;2.67;1.08;;;20.60;43.70;;;;;;5007822;28;46020;-59
2022/12/09 12:19:04;;;;;;;1.65;1.38;;;20.60;43.80;;;;;;4999137;28;45116;-59
2022/12/09 12:21:52;;;;;;;1.65;1.08;;;20.50;44.00;;;;;;4994311;28;45347;-58
2022/12/09 12:24:30;;;;;;;2.65;1.20;;;20.40;44.10;;;;;;4990262;28;45169;-58
2022/12/09 12:26:59;;;;;;;1.90;1.38;;;20.40;44.20;;;;;;4992823;28;45550;-58
2022/12/09 12:29:36;;;;;;;1.63;1.13;;;20.30;44.30;;;;;;4984320;28;45543;-58
2022/12/09 12:32:23;;;;;;;1.73;1.25;;;20.20;44.30;;;;;;5007947;28;45302;-58
2022/12/09 12:34:59;;;;;;;1.55;1.23;;;20.20;44.40;;;;;;5010568;28;45333;-58
2022/12/09 12:37:50;;;;;;;1.38;1.05;;;20.10;44.50;;;;;;4988313;28;45153;-58
2022/12/09 12:40:40;;;;;;;1.50;1.08;;;20.10;44.60;;;;;;4965007;28;45385;-59
2022/12/09 12:46:29;;;;;;;2.45;1.40;;;19.90;44.80;;;;;;4994625;28;45527;-57
2022/12/09 12:49:19;;;;;;;3.55;1.30;;;19.80;44.90;;;;;;5000348;28;45507;-58
2022/12/09 12:52:21;;;;;;;1.60;1.25;;;19.70;44.90;;;;;;5023232;28;45477;-59
2022/12/09 12:54:59;;;;;;;1.90;1.25;;;19.70;45.10;;;;;;5002355;28;45445;-58
2022/12/09 12:57:38;;;;;;;2.13;1.30;;;19.70;45.20;;;;;;4975698;28;45564;-58
2022/12/09 13:00:06;;;;;;;1.40;1.20;;;19.60;45.20;;;;;;4992643;28;45357;-57
2022/12/09 13:02:43;;;;;;;1.40;1.15;;;19.50;45.20;;;;;;4967669;28;45103;-59
2022/12/09 13:05:14;;;;;;;1.60;1.50;;;19.50;45.30;;;;;;4971905;28;45664;-59
2022/12/09 13:07:44;;;;;;;1.38;1.25;;;19.40;45.30;;;;;;5001702;28;45691;-59
2022/12/09 13:10:21;;;;;;;1.95;1.35;;;19.40;45.40;;;;;;4989733;28;46404;-59
2022/12/09 13:12:53;;;;;;;3.13;1.33;;;19.30;45.50;;;;;;4975011;28;45176;-59
2022/12/09 13:15:35;;;;;;;2.07;1.27;;;19.30;45.50;;;;;;4979541;28;45567;-58
2022/12/09 13:18:06;;;;;;;1.50;1.40;;;19.20;45.60;;;;;;4984873;28;45169;-58
2022/12/09 13:20:45;;;;;;;1.35;1.25;;;19.20;45.70;;;;;;4982557;28;45595;-59
2022/12/09 13:23:19;;;;;;;1.38;1.00;;;19.20;45.80;;;;;;4981557;28;45301;-58
2022/12/09 13:25:55;;;;;;;1.77;1.17;;;19.10;45.80;;;;;;4996266;28;44756;-59
2022/12/09 13:28:33;;;;;;;2.03;1.17;;;19.10;45.90;;;;;;4967220;28;45533;-59
2022/12/09 13:30:59;;;;;;;1.55;1.15;;;19.00;46.00;;;;;;4981237;28;45604;-59
2022/12/09 13:33:55;;;;;;;2.25;1.15;;;19.00;45.90;;;;;;4986356;28;45282;-58
2022/12/09 13:36:37;;;;;;;2.60;1.40;;;18.90;46.10;;;;;;4982118;28;45293;-60
2022/12/09 13:39:03;;;;;;;1.77;1.10;;;18.90;46.10;;;;;;4995760;28;45561;-59
2022/12/09 13:41:28;;;;;;;1.40;1.10;;;18.80;46.10;;;;;;4995936;28;46431;-59
2022/12/09 13:44:16;;;;;;;1.20;1.10;;;18.80;46.20;;;;;;5007985;28;45270;-59
2022/12/09 13:46:42;;;;;;;1.13;1.02;;;18.80;46.40;;;;;;4971872;28;45160;-59
2022/12/09 13:49:19;;;;;;;1.92;1.13;;;18.70;46.30;;;;;;4985731;28;45143;-59
2022/12/09 13:51:47;;;;;;;2.45;1.17;;;18.70;46.40;;;;;;4981788;28;46003;-58
2022/12/09 13:54:15;;;;;;;2.40;1.25;;;18.60;46.30;;;;;;4974679;28;45138;-59
2022/12/09 13:56:40;;;;;;;1.38;1.02;;;18.60;46.30;;;;;;4975142;28;45244;-59
2022/12/09 13:59:31;;;;;;;1.38;1.23;;;18.60;46.30;;;;;;4969369;28;45358;-58
2022/12/09 14:02:08;;;;;;;1.83;1.13;;;18.50;46.50;;;;;;5001256;28;46287;-59
2022/12/09 14:04:34;;;;;;;1.23;1.13;;;18.50;46.50;;;;;;4967692;28;44917;-59
2022/12/09 14:07:31;;;;;;;1.20;1.10;;;18.50;46.50;;;;;;4961672;28;45442;-58
2022/12/09 14:09:57;;;;;;;1.50;1.20;;;18.50;46.60;;;;;;4993098;28;45404;-58
2022/12/09 14:12:26;;;;;;;1.27;1.17;;;18.40;46.50;;;;;;4987196;28;45394;-58
2022/12/09 14:14:55;;;;;;;1.67;1.15;;;18.40;46.60;;;;;;5010461;28;44542;-58
2022/12/09 14:17:24;;;;;;;1.35;1.20;;;18.40;46.70;;;;;;5008577;28;45306;-59
2022/12/09 14:19:49;;;;;;;1.70;1.25;;;18.30;46.70;;;;;;5000891;28;45026;-59
2022/12/09 14:22:18;;;;;;;1.40;1.30;;;18.30;46.70;;;;;;4960017;28;46902;-59
2022/12/09 14:24:50;;;;;;;1.80;1.30;;;18.30;46.70;;;;;;4998299;28;45245;-58
2022/12/09 14:27:29;;;;;;;1.77;1.40;;;18.30;46.70;;;;;;4964560;28;45389;-58
2022/12/09 14:29:59;;;;;;;1.65;1.23;;;18.30;46.80;;;;;;4976392;28;45310;-59
2022/12/09 14:32:28;;;;;;;1.52;1.17;;;18.20;46.80;;;;;;4976210;28;45168;-58
2022/12/09 14:35:26;;;;;;;1.80;1.27;;;18.20;46.90;;;;;;4980792;28;45658;-57
2022/12/09 14:38:27;;;;;;;1.58;1.40;;;18.10;47.00;;;;;;4977751;28;44745;-57
2022/12/09 14:40:55;;;;;;;1.67;1.30;;;18.10;47.00;;;;;;4923793;28;45341;-58
2022/12/09 14:43:50;;;;;;;1.17;1.02;;;18.00;47.00;;;;;;4970630;28;45006;-59
2022/12/09 14:46:31;;;;;;;1.60;1.20;;;18.00;47.10;;;;;;4992432;28;45372;-58
2022/12/09 14:49:22;;;;;;;1.50;1.08;;;18.00;47.10;;;;;;4979134;28;44732;-59
2022/12/09 14:56:02;;;;;;;1.20;1.10;;;17.90;47.20;;;;;;4967173;28;45945;-59
2022/12/09 14:58:28;;;;;;;1.20;1.10;;;17.90;47.20;;;;;;4944013;28;45565;-58
2022/12/09 15:00:58;;;;;;;1.63;1.27;;;17.80;47.10;;;;;;4970814;28;45502;-59
2022/12/09 15:03:24;;;;;;;2.15;1.13;;;17.80;47.20;;;;;;4952935;28;45252;-61
2022/12/09 15:06:00;;;;;;;1.10;1.00;;;17.80;47.20;;;;;;4956760;28;45811;-58
2022/12/09 15:08:35;;;;;;;1.85;1.33;;;17.80;47.30;;;;;;4984887;28;45047;-58
2022/12/09 15:11:08;;;;;;;1.40;1.20;;;17.70;47.30;;;;;;4969677;28;45620;-59
2022/12/09 15:13:36;;;;;;;1.40;1.30;;;17.70;47.20;;;;;;4939862;28;44841;-59
2022/12/09 15:16:01;;;;;;;1.58;1.42;;;17.70;47.30;;;;;;4951472;28;46173;-61
2022/12/09 15:18:28;;;;;;;1.52;1.20;;;17.70;47.30;;;;;;4943268;28;45926;-58
2022/12/09 15:20:57;;;;;;;1.75;1.00;;;17.60;47.30;;;;;;4966245;28;45430;-57
2022/12/09 15:23:30;;;;;;;2.10;1.13;;;17.60;47.40;;;;;;4957175;28;44807;-59
2022/12/09 15:25:57;;;;;;;1.55;1.30;;;17.60;47.50;;;;;;4965307;28;45293;-57
2022/12/09 15:28:27;;;;;;;1.58;1.00;;;17.60;47.50;;;;;;4964609;28;45303;-57
2022/12/09 15:31:00;;;;;;;1.27;1.17;;;17.50;47.50;;;;;;4957835;28;45600;-59
2022/12/09 15:33:27;;;;;;;1.20;1.10;;;17.50;47.60;;;;;;4955308;28;45503;-59
2022/12/09 15:36:04;;;;;;;1.25;1.10;;;17.50;47.60;;;;;;4956173;28;45339;-58
2022/12/09 15:38:31;;;;;;;1.63;1.20;;;17.50;47.60;;;;;;4960864;28;46102;-59
2022/12/09 15:43:41;;;;;;;1.52;1.40;;;17.40;47.60;;;;;;4969543;28;45298;-58
2022/12/09 15:46:07;;;;;;;1.20;1.10;;;17.40;47.60;;;;;;4945656;28;47367;-57
2022/12/09 15:48:36;;;;;;;2.08;1.20;;;17.30;47.60;;;;;;4955173;28;45546;-59
2022/12/09 15:51:04;;;;;;;1.10;1.00;;;17.30;47.70;;;;;;4959255;28;44988;-58
2022/12/09 15:53:33;;;;;;;1.38;1.10;;;17.30;47.70;;;;;;4943241;28;44907;-57
2022/12/09 15:56:22;;;;;;;1.40;1.17;;;17.30;47.70;;;;;;4971881;28;46146;-60
2022/12/09 15:58:50;;;;;;;3.42;1.35;;;17.30;47.90;;;;;;4959500;28;45515;-57
2022/12/09 16:01:21;;;;;;;1.35;1.17;;;17.20;47.70;;;;;;4938066;28;45508;-59
2022/12/09 16:03:48;;;;;;;1.27;1.13;;;17.30;47.70;;;;;;4934125;28;46019;-59
2022/12/09 16:06:13;;;;;;;1.80;1.30;;;17.20;47.70;;;;;;4946364;28;45653;-58
2022/12/09 16:08:41;;;;;;;2.15;1.45;;;17.20;47.60;;;;;;4960154;28;45823;-60
2022/12/09 16:11:07;;;;;;;1.45;1.15;;;17.20;47.70;;;;;;4940988;28;45755;-61
2022/12/09 16:13:33;;;;;;;1.20;1.10;;;17.20;47.60;;;;;;4943449;28;45837;-58
2022/12/09 16:15:59;;;;;;;1.75;1.25;;;17.20;47.60;;;;;;4969632;28;45776;-61
2022/12/09 16:18:32;;;;;;;2.10;1.20;;;17.20;47.70;;;;;;4950788;28;45020;-60
2022/12/09 16:21:21;;;;;;;2.67;1.10;;;17.20;47.70;;;;;;4955729;28;45439;-59
2022/12/09 16:23:48;;;;;;;3.67;1.30;;;17.20;47.80;;;;;;4952996;28;45505;-60
2022/12/09 16:26:26;;;;;;;1.58;1.17;;;17.20;47.50;;;;;;4948733;28;47064;-59
2022/12/09 16:28:59;;;;;;;3.13;1.30;;;17.30;47.70;;;;;;4953771;28;45914;-60
2022/12/09 16:31:25;;;;;;;1.25;1.15;;;17.30;47.80;;;;;;4955653;28;45104;-59
2022/12/09 16:33:51;;;;;;;1.92;1.23;;;17.30;47.70;;;;;;4983442;28;44813;-58
2022/12/09 16:36:27;;;;;;;2.15;1.20;;;17.30;47.70;;;;;;4952475;28;47290;-58
2022/12/09 16:39:11;;;;;;;3.45;1.48;;;17.30;47.70;;;;;;4959459;28;45265;-58
2022/12/09 16:41:51;;;;;;;;;;;17.30;47.80;;;;;;4980006;28;45265;-60
2022/12/09 16:44:28;;;;;;;1.55;1.10;;;17.30;47.90;;;;;;4983776;28;45120;-60
2022/12/09 16:47:10;;;;;;;1.67;1.05;;;17.30;47.70;;;;;;4958232;28;46042;-59
2022/12/09 16:49:36;;;;;;;1.23;1.13;;;17.30;47.90;;;;;;4980399;28;45560;-59
2022/12/09 16:52:02;;;;;;;1.50;1.27;;;17.30;47.80;;;;;;4943756;28;45285;-59
2022/12/09 16:54:27;;;;;;;1.48;1.27;;;17.20;47.70;;;;;;4959653;28;45492;-58
2022/12/09 16:56:55;;;;;;;1.67;1.30;;;17.20;47.70;;;;;;4959197;28;45674;-59
2022/12/09 16:59:20;;;;;;;2.05;1.40;;;17.30;47.80;;;;;;4956885;28;45604;-58
2022/12/09 17:01:46;;;;;;;2.42;1.13;;;17.30;47.80;;;;;;4974840;28;44729;-59
2022/12/09 17:04:13;;;;;;;3.20;1.30;;;17.30;47.80;;;;;;4965152;28;45664;-58
2022/12/09 17:06:38;;;;;;;1.73;1.05;;;17.30;47.80;;;;;;4960656;28;46322;-58
2022/12/09 17:09:04;;;;;;;2.00;1.08;;;17.30;47.80;;;;;;4960511;28;45657;-61
2022/12/09 17:11:29;;;;;;;1.02;0.93;;;17.20;47.80;;;;;;4981450;28;45349;-58
2022/12/09 17:13:55;;;;;;;1.45;1.30;;;17.20;47.80;;;;;;4966033;28;45268;-59
2022/12/09 17:16:22;;;;;;;2.10;1.35;;;17.30;47.90;;;;;;4981929;28;45610;-60
2022/12/09 17:18:48;;;;;;;4.03;1.50;;;17.30;47.90;;;;;;4976424;28;44894;-58
2022/12/09 17:21:14;;;;;;;1.95;1.27;;;17.20;47.80;;;;;;4965478;28;45524;-58
2022/12/09 17:23:40;;;;;;;1.25;1.00;;;17.30;47.90;;;;;;4972459;28;44864;-59
2022/12/09 17:26:07;;;;;;;2.80;1.30;;;17.30;47.80;;;;;;4938133;28;45715;-60
2022/12/09 17:28:34;;;;;;;5.72;1.10;;;17.30;47.80;;;;;;4954741;28;45209;-58
2022/12/09 17:31:00;;;;;;;4.07;1.20;;;17.20;47.80;;;;;;4968919;28;45459;-61
2022/12/09 17:33:27;;;;;;;2.47;1.42;;;17.20;47.90;;;;;;4947899;28;45252;-59
2022/12/09 17:35:52;;;;;;;2.17;1.25;;;17.20;47.90;;;;;;4947405;28;46989;-60